sensor_id;sensor_type;location;lat;lon;timestamp;P1;durP1;ratioP1;P2;durP2;ratioP2
65092;SDS011;52025;50.288;2.794;2022-08-01T04:33:30;4.18;;;1.70;;
65092;SDS011;52025;50.288;2.794;2022-08-01T04:35:55;4.90;;;1.88;;
65092;SDS011;52025;50.288;2.794;2022-08-01T04:38:22;6.10;;;1.75;;
65092;SDS011;52025;50.288;2.794;2022-08-01T04:40:52;5.65;;;1.90;;
65092;SDS011;52025;50.288;2.794;2022-08-01T04:43:17;5.63;;;2.15;;
65092;SDS011;52025;50.288;2.794;2022-08-01T04:45:43;7.43;;;2.60;;
65092;SDS011;52025;50.288;2.794;2022-08-01T04:48:10;7.53;;;2.63;;
65092;SDS011;52025;50.288;2.794;2022-08-01T04:50:35;7.05;;;2.47;;
65092;SDS011;52025;50.288;2.794;2022-08-01T04:53:01;4.88;;;2.33;;
65092;SDS011;52025;50.288;2.794;2022-08-01T04:55:28;7.22;;;2.20;;
65092;SDS011;52025;50.288;2.794;2022-08-01T04:57:53;4.75;;;1.80;;
65092;SDS011;52025;50.288;2.794;2022-08-01T05:00:18;6.13;;;1.93;;
65092;SDS011;52025;50.288;2.794;2022-08-01T05:02:43;4.73;;;1.87;;
65092;SDS011;52025;50.288;2.794;2022-08-01T05:05:09;5.13;;;2.10;;
65092;SDS011;52025;50.288;2.794;2022-08-01T05:07:35;8.77;;;2.30;;
65092;SDS011;52025;50.288;2.794;2022-08-01T05:10:01;5.97;;;2.33;;
65092;SDS011;52025;50.288;2.794;2022-08-01T05:12:26;6.38;;;2.30;;
65092;SDS011;52025;50.288;2.794;2022-08-01T05:14:51;6.10;;;2.50;;
65092;SDS011;52025;50.288;2.794;2022-08-01T05:17:17;5.50;;;2.10;;
65092;SDS011;52025;50.288;2.794;2022-08-01T05:19:42;6.93;;;2.53;;
65092;SDS011;52025;50.288;2.794;2022-08-01T05:22:08;5.70;;;2.08;;
65092;SDS011;52025;50.288;2.794;2022-08-01T05:24:34;7.43;;;2.80;;
65092;SDS011;52025;50.288;2.794;2022-08-01T05:27:00;6.28;;;2.67;;
65092;SDS011;52025;50.288;2.794;2022-08-01T05:29:25;9.45;;;3.22;;
65092;SDS011;52025;50.288;2.794;2022-08-01T05:31:51;5.25;;;2.38;;
65092;SDS011;52025;50.288;2.794;2022-08-01T05:34:16;5.82;;;2.60;;
65092;SDS011;52025;50.288;2.794;2022-08-01T05:36:42;7.78;;;2.58;;
65092;SDS011;52025;50.288;2.794;2022-08-01T05:39:07;8.05;;;3.00;;
65092;SDS011;52025;50.288;2.794;2022-08-01T05:41:32;9.07;;;2.30;;
65092;SDS011;52025;50.288;2.794;2022-08-01T05:43:58;6.63;;;2.80;;
65092;SDS011;52025;50.288;2.794;2022-08-01T05:46:23;6.65;;;2.47;;
65092;SDS011;52025;50.288;2.794;2022-08-01T05:48:48;7.10;;;3.13;;
65092;SDS011;52025;50.288;2.794;2022-08-01T05:51:13;5.53;;;2.20;;
65092;SDS011;52025;50.288;2.794;2022-08-01T05:53:39;5.90;;;2.58;;
65092;SDS011;52025;50.288;2.794;2022-08-01T05:56:04;7.40;;;3.80;;
65092;SDS011;52025;50.288;2.794;2022-08-01T05:58:29;6.88;;;3.33;;
65092;SDS011;52025;50.288;2.794;2022-08-01T06:00:54;11.93;;;3.67;;
65092;SDS011;52025;50.288;2.794;2022-08-01T06:03:20;8.50;;;3.95;;
65092;SDS011;52025;50.288;2.794;2022-08-01T06:05:45;10.43;;;3.80;;
65092;SDS011;52025;50.288;2.794;2022-08-01T06:08:10;7.63;;;3.43;;
65092;SDS011;52025;50.288;2.794;2022-08-01T06:10:35;8.13;;;3.25;;
65092;SDS011;52025;50.288;2.794;2022-08-01T06:13:01;8.60;;;4.00;;
65092;SDS011;52025;50.288;2.794;2022-08-01T06:15:29;6.88;;;3.50;;
65092;SDS011;52025;50.288;2.794;2022-08-01T06:17:55;8.15;;;3.30;;
65092;SDS011;52025;50.288;2.794;2022-08-01T06:20:20;8.10;;;3.30;;
65092;SDS011;52025;50.288;2.794;2022-08-01T06:22:45;5.43;;;2.80;;
65092;SDS011;52025;50.288;2.794;2022-08-01T06:25:10;7.07;;;3.10;;
65092;SDS011;52025;50.288;2.794;2022-08-01T06:27:36;7.57;;;3.17;;
65092;SDS011;52025;50.288;2.794;2022-08-01T06:30:02;8.18;;;3.30;;
65092;SDS011;52025;50.288;2.794;2022-08-01T06:32:27;6.95;;;3.15;;
65092;SDS011;52025;50.288;2.794;2022-08-01T06:34:52;6.95;;;2.97;;
65092;SDS011;52025;50.288;2.794;2022-08-01T06:37:18;8.70;;;3.20;;
65092;SDS011;52025;50.288;2.794;2022-08-01T06:39:43;7.23;;;3.47;;
65092;SDS011;52025;50.288;2.794;2022-08-01T06:42:08;5.47;;;2.90;;
65092;SDS011;52025;50.288;2.794;2022-08-01T06:44:34;5.25;;;2.72;;
65092;SDS011;52025;50.288;2.794;2022-08-01T06:46:59;4.68;;;2.50;;
65092;SDS011;52025;50.288;2.794;2022-08-01T06:49:25;6.35;;;2.25;;
65092;SDS011;52025;50.288;2.794;2022-08-01T06:51:50;5.05;;;2.53;;
65092;SDS011;52025;50.288;2.794;2022-08-01T06:54:15;5.07;;;2.58;;
65092;SDS011;52025;50.288;2.794;2022-08-01T06:56:41;8.10;;;2.50;;
65092;SDS011;52025;50.288;2.794;2022-08-01T06:59:06;5.88;;;2.60;;
65092;SDS011;52025;50.288;2.794;2022-08-01T07:01:31;7.20;;;3.07;;
65092;SDS011;52025;50.288;2.794;2022-08-01T07:03:56;5.77;;;2.53;;
65092;SDS011;52025;50.288;2.794;2022-08-01T07:06:22;8.33;;;3.23;;
65092;SDS011;52025;50.288;2.794;2022-08-01T07:08:48;8.48;;;3.30;;
65092;SDS011;52025;50.288;2.794;2022-08-01T07:11:13;5.35;;;2.63;;
65092;SDS011;52025;50.288;2.794;2022-08-01T07:13:38;5.10;;;2.67;;
65092;SDS011;52025;50.288;2.794;2022-08-01T07:16:04;4.20;;;2.25;;
65092;SDS011;52025;50.288;2.794;2022-08-01T07:18:29;7.53;;;3.20;;
65092;SDS011;52025;50.288;2.794;2022-08-01T07:20:54;6.80;;;3.10;;
65092;SDS011;52025;50.288;2.794;2022-08-01T07:23:20;7.05;;;3.55;;
65092;SDS011;52025;50.288;2.794;2022-08-01T07:25:45;6.85;;;2.75;;
65092;SDS011;52025;50.288;2.794;2022-08-01T07:28:10;7.53;;;3.42;;
65092;SDS011;52025;50.288;2.794;2022-08-01T07:30:36;4.28;;;2.00;;
65092;SDS011;52025;50.288;2.794;2022-08-01T07:33:01;5.68;;;2.30;;
65092;SDS011;52025;50.288;2.794;2022-08-01T07:35:27;4.07;;;2.10;;
65092;SDS011;52025;50.288;2.794;2022-08-01T07:37:52;4.43;;;2.20;;
65092;SDS011;52025;50.288;2.794;2022-08-01T07:40:18;4.30;;;2.35;;
65092;SDS011;52025;50.288;2.794;2022-08-01T07:42:44;4.75;;;2.50;;
65092;SDS011;52025;50.288;2.794;2022-08-01T07:45:10;5.93;;;3.67;;
65092;SDS011;52025;50.288;2.794;2022-08-01T07:47:36;5.13;;;2.78;;
65092;SDS011;52025;50.288;2.794;2022-08-01T07:50:04;6.60;;;4.30;;
65092;SDS011;52025;50.288;2.794;2022-08-01T07:52:30;6.75;;;3.83;;
65092;SDS011;52025;50.288;2.794;2022-08-01T07:54:55;6.78;;;4.35;;
65092;SDS011;52025;50.288;2.794;2022-08-01T07:57:21;6.82;;;3.55;;
65092;SDS011;52025;50.288;2.794;2022-08-01T07:59:46;8.05;;;4.28;;
65092;SDS011;52025;50.288;2.794;2022-08-01T08:02:12;5.60;;;2.65;;
65092;SDS011;52025;50.288;2.794;2022-08-01T08:04:37;7.00;;;3.70;;
65092;SDS011;52025;50.288;2.794;2022-08-01T08:07:02;6.03;;;3.37;;
65092;SDS011;52025;50.288;2.794;2022-08-01T08:09:27;4.55;;;2.53;;
65092;SDS011;52025;50.288;2.794;2022-08-01T08:11:53;4.18;;;2.30;;
65092;SDS011;52025;50.288;2.794;2022-08-01T08:14:18;3.73;;;2.20;;
65092;SDS011;52025;50.288;2.794;2022-08-01T08:16:43;4.40;;;1.70;;
65092;SDS011;52025;50.288;2.794;2022-08-01T08:19:09;3.75;;;1.75;;
65092;SDS011;52025;50.288;2.794;2022-08-01T08:21:34;3.60;;;1.70;;
65092;SDS011;52025;50.288;2.794;2022-08-01T08:23:59;3.88;;;1.95;;
65092;SDS011;52025;50.288;2.794;2022-08-01T08:29:09;4.38;;;1.85;;
65092;SDS011;52025;50.288;2.794;2022-08-01T08:31:34;3.13;;;1.50;;
65092;SDS011;52025;50.288;2.794;2022-08-01T08:33:59;3.83;;;1.83;;
65092;SDS011;52025;50.288;2.794;2022-08-01T08:36:24;3.67;;;1.67;;
65092;SDS011;52025;50.288;2.794;2022-08-01T08:38:49;4.43;;;2.30;;
65092;SDS011;52025;50.288;2.794;2022-08-01T08:41:15;4.17;;;2.10;;
65092;SDS011;52025;50.288;2.794;2022-08-01T08:43:40;3.58;;;2.05;;
65092;SDS011;52025;50.288;2.794;2022-08-01T08:46:05;3.13;;;1.73;;
65092;SDS011;52025;50.288;2.794;2022-08-01T08:48:32;3.40;;;1.88;;
65092;SDS011;52025;50.288;2.794;2022-08-01T08:50:58;4.70;;;2.45;;
65092;SDS011;52025;50.288;2.794;2022-08-01T08:53:25;6.03;;;2.47;;
65092;SDS011;52025;50.288;2.794;2022-08-01T08:55:51;4.15;;;2.13;;
65092;SDS011;52025;50.288;2.794;2022-08-01T08:58:16;3.00;;;1.63;;
65092;SDS011;52025;50.288;2.794;2022-08-01T09:00:42;4.30;;;1.85;;
65092;SDS011;52025;50.288;2.794;2022-08-01T09:03:08;3.40;;;1.90;;
65092;SDS011;52025;50.288;2.794;2022-08-01T09:05:33;3.13;;;1.80;;
65092;SDS011;52025;50.288;2.794;2022-08-01T09:07:58;3.50;;;1.60;;
65092;SDS011;52025;50.288;2.794;2022-08-01T09:10:24;2.97;;;1.60;;
65092;SDS011;52025;50.288;2.794;2022-08-01T09:15:47;3.03;;;1.55;;
65092;SDS011;52025;50.288;2.794;2022-08-01T09:20:51;4.10;;;2.10;;
65092;SDS011;52025;50.288;2.794;2022-08-01T09:23:58;4.10;;;2.50;;
65092;SDS011;52025;50.288;2.794;2022-08-01T09:26:17;4.07;;;2.13;;
65092;SDS011;52025;50.288;2.794;2022-08-01T09:28:43;2.03;;;1.35;;
65092;SDS011;52025;50.288;2.794;2022-08-01T09:31:17;3.50;;;1.90;;
65092;SDS011;52025;50.288;2.794;2022-08-01T09:33:51;3.05;;;1.88;;
65092;SDS011;52025;50.288;2.794;2022-08-01T09:36:17;1.83;;;1.15;;
65092;SDS011;52025;50.288;2.794;2022-08-01T09:38:42;2.55;;;1.33;;
65092;SDS011;52025;50.288;2.794;2022-08-01T09:41:07;2.83;;;1.35;;
65092;SDS011;52025;50.288;2.794;2022-08-01T09:43:33;1.88;;;1.13;;
65092;SDS011;52025;50.288;2.794;2022-08-01T09:45:58;3.45;;;1.50;;
65092;SDS011;52025;50.288;2.794;2022-08-01T09:48:24;2.15;;;1.23;;
65092;SDS011;52025;50.288;2.794;2022-08-01T09:50:50;3.28;;;1.70;;
65092;SDS011;52025;50.288;2.794;2022-08-01T09:53:15;2.75;;;1.10;;
65092;SDS011;52025;50.288;2.794;2022-08-01T09:55:42;1.90;;;1.05;;
65092;SDS011;52025;50.288;2.794;2022-08-01T09:58:07;2.97;;;1.40;;
65092;SDS011;52025;50.288;2.794;2022-08-01T10:00:33;1.83;;;1.10;;
65092;SDS011;52025;50.288;2.794;2022-08-01T10:02:59;0.80;;;0.77;;
65092;SDS011;52025;50.288;2.794;2022-08-01T10:05:31;1.70;;;1.05;;
65092;SDS011;52025;50.288;2.794;2022-08-01T10:07:58;2.03;;;0.93;;
65092;SDS011;52025;50.288;2.794;2022-08-01T10:10:23;2.08;;;0.82;;
65092;SDS011;52025;50.288;2.794;2022-08-01T10:12:48;1.48;;;0.70;;
65092;SDS011;52025;50.288;2.794;2022-08-01T10:15:15;1.80;;;0.90;;
65092;SDS011;52025;50.288;2.794;2022-08-01T10:17:41;1.80;;;0.82;;
65092;SDS011;52025;50.288;2.794;2022-08-01T10:20:11;3.05;;;1.00;;
65092;SDS011;52025;50.288;2.794;2022-08-01T10:22:36;1.25;;;0.88;;
65092;SDS011;52025;50.288;2.794;2022-08-01T10:25:03;1.02;;;0.50;;
65092;SDS011;52025;50.288;2.794;2022-08-01T10:27:28;1.13;;;0.50;;
65092;SDS011;52025;50.288;2.794;2022-08-01T10:29:55;0.82;;;0.50;;
65092;SDS011;52025;50.288;2.794;2022-08-01T10:32:21;1.08;;;0.50;;
65092;SDS011;52025;50.288;2.794;2022-08-01T10:34:47;3.20;;;1.23;;
65092;SDS011;52025;50.288;2.794;2022-08-01T10:37:13;3.05;;;1.55;;
65092;SDS011;52025;50.288;2.794;2022-08-01T10:39:39;2.33;;;1.15;;
65092;SDS011;52025;50.288;2.794;2022-08-01T10:42:04;1.92;;;1.10;;
65092;SDS011;52025;50.288;2.794;2022-08-01T10:44:31;1.23;;;0.70;;
65092;SDS011;52025;50.288;2.794;2022-08-01T10:47:06;2.65;;;1.08;;
65092;SDS011;52025;50.288;2.794;2022-08-01T10:49:34;2.83;;;1.40;;
65092;SDS011;52025;50.288;2.794;2022-08-01T10:52:00;3.28;;;1.60;;
65092;SDS011;52025;50.288;2.794;2022-08-01T10:54:25;2.45;;;1.30;;
65092;SDS011;52025;50.288;2.794;2022-08-01T10:56:51;3.20;;;1.52;;
65092;SDS011;52025;50.288;2.794;2022-08-01T10:59:27;2.45;;;1.20;;
65092;SDS011;52025;50.288;2.794;2022-08-01T11:01:58;1.92;;;1.10;;
65092;SDS011;52025;50.288;2.794;2022-08-01T11:09:41;1.30;;;0.90;;
65092;SDS011;52025;50.288;2.794;2022-08-01T11:12:13;1.08;;;0.80;;
65092;SDS011;52025;50.288;2.794;2022-08-01T11:17:29;1.05;;;0.73;;
65092;SDS011;52025;50.288;2.794;2022-08-01T11:22:29;1.52;;;0.63;;
65092;SDS011;52025;50.288;2.794;2022-08-01T11:24:55;1.07;;;0.57;;
65092;SDS011;52025;50.288;2.794;2022-08-01T11:27:31;1.17;;;0.73;;
65092;SDS011;52025;50.288;2.794;2022-08-01T11:30:41;1.42;;;0.80;;
65092;SDS011;52025;50.288;2.794;2022-08-01T11:32:49;1.00;;;0.73;;
65092;SDS011;52025;50.288;2.794;2022-08-01T11:35:14;0.90;;;0.60;;
65092;SDS011;52025;50.288;2.794;2022-08-01T11:37:40;1.25;;;0.70;;
65092;SDS011;52025;50.288;2.794;2022-08-01T11:40:18;2.92;;;1.30;;
65092;SDS011;52025;50.288;2.794;2022-08-01T11:42:44;2.72;;;1.23;;
65092;SDS011;52025;50.288;2.794;2022-08-01T11:45:09;1.35;;;0.93;;
65092;SDS011;52025;50.288;2.794;2022-08-01T11:47:47;1.48;;;0.85;;
65092;SDS011;52025;50.288;2.794;2022-08-01T11:53:03;1.40;;;0.88;;
65092;SDS011;52025;50.288;2.794;2022-08-01T11:55:29;0.77;;;0.50;;
65092;SDS011;52025;50.288;2.794;2022-08-01T11:57:59;0.47;;;0.40;;
65092;SDS011;52025;50.288;2.794;2022-08-01T12:00:27;1.35;;;0.60;;
65092;SDS011;52025;50.288;2.794;2022-08-01T12:03:05;1.05;;;0.60;;
65092;SDS011;52025;50.288;2.794;2022-08-01T12:05:31;0.52;;;0.50;;
65092;SDS011;52025;50.288;2.794;2022-08-01T12:07:58;1.80;;;0.90;;
65092;SDS011;52025;50.288;2.794;2022-08-01T12:10:24;3.55;;;1.20;;
65092;SDS011;52025;50.288;2.794;2022-08-01T12:12:51;1.88;;;1.00;;
65092;SDS011;52025;50.288;2.794;2022-08-01T12:15:17;1.25;;;0.73;;
65092;SDS011;52025;50.288;2.794;2022-08-01T12:17:44;0.80;;;0.60;;
65092;SDS011;52025;50.288;2.794;2022-08-01T12:20:10;1.15;;;0.85;;
65092;SDS011;52025;50.288;2.794;2022-08-01T12:22:36;1.42;;;1.00;;
65092;SDS011;52025;50.288;2.794;2022-08-01T12:25:08;1.25;;;0.80;;
65092;SDS011;52025;50.288;2.794;2022-08-01T12:27:34;0.70;;;0.50;;
65092;SDS011;52025;50.288;2.794;2022-08-01T12:29:59;0.50;;;0.50;;
65092;SDS011;52025;50.288;2.794;2022-08-01T12:34:50;0.88;;;0.70;;
65092;SDS011;52025;50.288;2.794;2022-08-01T12:37:16;3.28;;;1.27;;
65092;SDS011;52025;50.288;2.794;2022-08-01T12:39:42;1.90;;;0.90;;
65092;SDS011;52025;50.288;2.794;2022-08-01T12:42:08;0.60;;;0.55;;
65092;SDS011;52025;50.288;2.794;2022-08-01T12:44:35;1.00;;;0.50;;
65092;SDS011;52025;50.288;2.794;2022-08-01T12:47:01;1.42;;;0.80;;
65092;SDS011;52025;50.288;2.794;2022-08-01T12:49:26;2.55;;;0.82;;
65092;SDS011;52025;50.288;2.794;2022-08-01T12:51:52;3.50;;;0.63;;
65092;SDS011;52025;50.288;2.794;2022-08-01T12:54:18;2.30;;;1.30;;
65092;SDS011;52025;50.288;2.794;2022-08-01T12:56:43;1.20;;;0.60;;
65092;SDS011;52025;50.288;2.794;2022-08-01T13:01:47;1.52;;;0.80;;
65092;SDS011;52025;50.288;2.794;2022-08-01T13:04:12;1.35;;;0.90;;
65092;SDS011;52025;50.288;2.794;2022-08-01T13:06:38;0.85;;;0.57;;
65092;SDS011;52025;50.288;2.794;2022-08-01T13:09:10;1.33;;;0.70;;
65092;SDS011;52025;50.288;2.794;2022-08-01T13:11:36;0.75;;;0.57;;
65092;SDS011;52025;50.288;2.794;2022-08-01T13:14:02;2.13;;;1.00;;
65092;SDS011;52025;50.288;2.794;2022-08-01T13:16:27;1.42;;;0.90;;
65092;SDS011;52025;50.288;2.794;2022-08-01T13:18:54;1.58;;;0.93;;
65092;SDS011;52025;50.288;2.794;2022-08-01T13:21:20;2.33;;;1.17;;
65092;SDS011;52025;50.288;2.794;2022-08-01T13:24:02;1.17;;;0.73;;
65092;SDS011;52025;50.288;2.794;2022-08-01T13:26:41;1.17;;;0.90;;
65092;SDS011;52025;50.288;2.794;2022-08-01T13:29:08;1.85;;;1.10;;
65092;SDS011;52025;50.288;2.794;2022-08-01T13:31:34;2.70;;;1.38;;
65092;SDS011;52025;50.288;2.794;2022-08-01T13:33:59;4.30;;;1.40;;
65092;SDS011;52025;50.288;2.794;2022-08-01T13:36:25;1.85;;;1.20;;
65092;SDS011;52025;50.288;2.794;2022-08-01T13:38:54;2.35;;;1.20;;
65092;SDS011;52025;50.288;2.794;2022-08-01T13:41:37;3.88;;;1.40;;
65092;SDS011;52025;50.288;2.794;2022-08-01T13:44:06;1.50;;;0.93;;
65092;SDS011;52025;50.288;2.794;2022-08-01T13:46:33;2.17;;;1.13;;
65092;SDS011;52025;50.288;2.794;2022-08-01T13:48:59;1.67;;;0.98;;
65092;SDS011;52025;50.288;2.794;2022-08-01T13:51:24;3.00;;;1.48;;
65092;SDS011;52025;50.288;2.794;2022-08-01T13:53:49;2.15;;;1.33;;
65092;SDS011;52025;50.288;2.794;2022-08-01T13:56:14;3.25;;;1.40;;
65092;SDS011;52025;50.288;2.794;2022-08-01T13:58:42;3.80;;;1.50;;
65092;SDS011;52025;50.288;2.794;2022-08-01T14:01:10;1.52;;;1.08;;
65092;SDS011;52025;50.288;2.794;2022-08-01T14:03:35;1.42;;;0.80;;
65092;SDS011;52025;50.288;2.794;2022-08-01T14:06:03;1.90;;;0.90;;
65092;SDS011;52025;50.288;2.794;2022-08-01T14:08:28;2.90;;;0.80;;
65092;SDS011;52025;50.288;2.794;2022-08-01T14:10:56;1.65;;;0.93;;
65092;SDS011;52025;50.288;2.794;2022-08-01T14:13:24;2.58;;;1.00;;
65092;SDS011;52025;50.288;2.794;2022-08-01T14:15:51;0.85;;;0.70;;
65092;SDS011;52025;50.288;2.794;2022-08-01T14:18:16;3.00;;;1.15;;
65092;SDS011;52025;50.288;2.794;2022-08-01T14:20:42;1.38;;;0.98;;
65092;SDS011;52025;50.288;2.794;2022-08-01T14:23:07;1.40;;;0.90;;
65092;SDS011;52025;50.288;2.794;2022-08-01T14:25:33;1.85;;;1.00;;
65092;SDS011;52025;50.288;2.794;2022-08-01T14:27:58;3.03;;;1.52;;
65092;SDS011;52025;50.288;2.794;2022-08-01T14:30:23;4.72;;;2.58;;
65092;SDS011;52025;50.288;2.794;2022-08-01T14:32:48;3.65;;;2.13;;
65092;SDS011;52025;50.288;2.794;2022-08-01T14:35:13;4.43;;;2.17;;
65092;SDS011;52025;50.288;2.794;2022-08-01T14:37:39;5.17;;;2.10;;
65092;SDS011;52025;50.288;2.794;2022-08-01T14:40:05;1.98;;;0.93;;
65092;SDS011;52025;50.288;2.794;2022-08-01T14:42:34;1.95;;;1.08;;
65092;SDS011;52025;50.288;2.794;2022-08-01T14:45:00;2.97;;;1.40;;
65092;SDS011;52025;50.288;2.794;2022-08-01T14:47:25;2.53;;;1.27;;
65092;SDS011;52025;50.288;2.794;2022-08-01T14:49:50;4.60;;;2.20;;
65092;SDS011;52025;50.288;2.794;2022-08-01T14:52:16;3.20;;;1.48;;
65092;SDS011;52025;50.288;2.794;2022-08-01T14:54:41;2.88;;;1.55;;
65092;SDS011;52025;50.288;2.794;2022-08-01T14:57:07;5.38;;;2.40;;
65092;SDS011;52025;50.288;2.794;2022-08-01T14:59:35;4.30;;;2.25;;
65092;SDS011;52025;50.288;2.794;2022-08-01T15:02:00;5.68;;;2.15;;
65092;SDS011;52025;50.288;2.794;2022-08-01T15:04:28;3.55;;;1.95;;
65092;SDS011;52025;50.288;2.794;2022-08-01T15:06:59;4.65;;;2.20;;
65092;SDS011;52025;50.288;2.794;2022-08-01T15:27:10;4.03;;;2.00;;
65092;SDS011;52025;50.288;2.794;2022-08-01T15:29:35;3.78;;;1.90;;
65092;SDS011;52025;50.288;2.794;2022-08-01T15:32:02;2.95;;;1.50;;
65092;SDS011;52025;50.288;2.794;2022-08-01T15:34:28;1.80;;;1.10;;
65092;SDS011;52025;50.288;2.794;2022-08-01T15:36:53;3.65;;;1.65;;
65092;SDS011;52025;50.288;2.794;2022-08-01T15:39:18;2.30;;;1.30;;
65092;SDS011;52025;50.288;2.794;2022-08-01T15:41:44;2.47;;;1.30;;
65092;SDS011;52025;50.288;2.794;2022-08-01T15:44:09;3.88;;;1.80;;
65092;SDS011;52025;50.288;2.794;2022-08-01T15:46:34;4.10;;;1.93;;
65092;SDS011;52025;50.288;2.794;2022-08-01T15:49:03;4.57;;;1.83;;
65092;SDS011;52025;50.288;2.794;2022-08-01T15:51:29;2.70;;;1.40;;
65092;SDS011;52025;50.288;2.794;2022-08-01T15:53:55;3.28;;;1.67;;
65092;SDS011;52025;50.288;2.794;2022-08-01T15:56:20;3.63;;;1.70;;
65092;SDS011;52025;50.288;2.794;2022-08-01T15:58:45;4.32;;;2.25;;
65092;SDS011;52025;50.288;2.794;2022-08-01T16:01:11;4.18;;;2.13;;
65092;SDS011;52025;50.288;2.794;2022-08-01T16:03:36;2.50;;;1.50;;
65092;SDS011;52025;50.288;2.794;2022-08-01T16:06:01;3.53;;;1.57;;
65092;SDS011;52025;50.288;2.794;2022-08-01T16:08:26;3.35;;;1.85;;
65092;SDS011;52025;50.288;2.794;2022-08-01T16:10:52;4.00;;;2.00;;
65092;SDS011;52025;50.288;2.794;2022-08-01T16:13:17;4.25;;;2.25;;
65092;SDS011;52025;50.288;2.794;2022-08-01T16:15:42;4.68;;;1.90;;
65092;SDS011;52025;50.288;2.794;2022-08-01T16:18:08;4.32;;;2.00;;
65092;SDS011;52025;50.288;2.794;2022-08-01T16:20:34;3.75;;;1.95;;
65092;SDS011;52025;50.288;2.794;2022-08-01T16:22:59;2.42;;;1.40;;
65092;SDS011;52025;50.288;2.794;2022-08-01T16:25:25;2.80;;;1.40;;
65092;SDS011;52025;50.288;2.794;2022-08-01T16:27:50;2.85;;;1.70;;
65092;SDS011;52025;50.288;2.794;2022-08-01T16:30:16;3.03;;;1.40;;
65092;SDS011;52025;50.288;2.794;2022-08-01T16:32:41;2.63;;;1.45;;
65092;SDS011;52025;50.288;2.794;2022-08-01T16:35:06;3.87;;;1.77;;
65092;SDS011;52025;50.288;2.794;2022-08-01T16:37:32;2.78;;;1.40;;
65092;SDS011;52025;50.288;2.794;2022-08-01T16:39:57;2.92;;;1.60;;
65092;SDS011;52025;50.288;2.794;2022-08-01T16:42:22;3.30;;;1.50;;
65092;SDS011;52025;50.288;2.794;2022-08-01T16:44:47;3.13;;;1.40;;
65092;SDS011;52025;50.288;2.794;2022-08-01T16:47:13;3.60;;;1.50;;
65092;SDS011;52025;50.288;2.794;2022-08-01T16:49:38;2.58;;;1.20;;
65092;SDS011;52025;50.288;2.794;2022-08-01T16:52:04;2.10;;;1.30;;
65092;SDS011;52025;50.288;2.794;2022-08-01T16:54:29;1.92;;;1.17;;
65092;SDS011;52025;50.288;2.794;2022-08-01T16:56:54;3.17;;;1.58;;
65092;SDS011;52025;50.288;2.794;2022-08-01T16:59:20;2.15;;;1.20;;
65092;SDS011;52025;50.288;2.794;2022-08-01T17:01:45;3.03;;;1.50;;
65092;SDS011;52025;50.288;2.794;2022-08-01T17:04:10;2.63;;;1.55;;
65092;SDS011;52025;50.288;2.794;2022-08-01T17:06:35;3.53;;;1.50;;
65092;SDS011;52025;50.288;2.794;2022-08-01T17:09:01;3.15;;;1.50;;
65092;SDS011;52025;50.288;2.794;2022-08-01T17:11:26;2.40;;;1.40;;
65092;SDS011;52025;50.288;2.794;2022-08-01T17:13:52;2.50;;;1.50;;
65092;SDS011;52025;50.288;2.794;2022-08-01T17:16:17;3.22;;;1.50;;
65092;SDS011;52025;50.288;2.794;2022-08-01T17:18:43;2.10;;;1.27;;
65092;SDS011;52025;50.288;2.794;2022-08-01T17:21:08;4.10;;;1.52;;
65092;SDS011;52025;50.288;2.794;2022-08-01T17:23:33;3.83;;;1.50;;
65092;SDS011;52025;50.288;2.794;2022-08-01T17:25:59;3.08;;;1.70;;
65092;SDS011;52025;50.288;2.794;2022-08-01T17:28:25;2.95;;;1.20;;
65092;SDS011;52025;50.288;2.794;2022-08-01T17:30:50;2.00;;;1.13;;
65092;SDS011;52025;50.288;2.794;2022-08-01T17:33:15;2.72;;;1.48;;
65092;SDS011;52025;50.288;2.794;2022-08-01T17:35:41;2.78;;;1.45;;
65092;SDS011;52025;50.288;2.794;2022-08-01T17:38:06;2.97;;;1.50;;
65092;SDS011;52025;50.288;2.794;2022-08-01T17:40:32;3.25;;;1.60;;
65092;SDS011;52025;50.288;2.794;2022-08-01T17:42:57;3.00;;;1.60;;
65092;SDS011;52025;50.288;2.794;2022-08-01T17:45:22;2.88;;;1.40;;
65092;SDS011;52025;50.288;2.794;2022-08-01T17:47:47;3.20;;;1.70;;
65092;SDS011;52025;50.288;2.794;2022-08-01T17:50:13;3.58;;;1.60;;
65092;SDS011;52025;50.288;2.794;2022-08-01T17:52:38;2.60;;;1.48;;
65092;SDS011;52025;50.288;2.794;2022-08-01T17:55:04;3.42;;;1.60;;
65092;SDS011;52025;50.288;2.794;2022-08-01T17:57:29;3.88;;;1.58;;
65092;SDS011;52025;50.288;2.794;2022-08-01T17:59:55;2.78;;;1.35;;
65092;SDS011;52025;50.288;2.794;2022-08-01T18:02:23;2.85;;;1.35;;
65092;SDS011;52025;50.288;2.794;2022-08-01T18:04:48;4.20;;;1.77;;
65092;SDS011;52025;50.288;2.794;2022-08-01T18:07:16;2.75;;;1.50;;
65092;SDS011;52025;50.288;2.794;2022-08-01T18:09:41;3.33;;;1.40;;
65092;SDS011;52025;50.288;2.794;2022-08-01T18:12:06;2.85;;;1.40;;
65092;SDS011;52025;50.288;2.794;2022-08-01T18:14:32;3.85;;;1.50;;
65092;SDS011;52025;50.288;2.794;2022-08-01T18:16:57;3.00;;;1.40;;
65092;SDS011;52025;50.288;2.794;2022-08-01T18:19:22;3.80;;;1.60;;
65092;SDS011;52025;50.288;2.794;2022-08-01T18:21:48;2.67;;;1.30;;
65092;SDS011;52025;50.288;2.794;2022-08-01T18:24:14;4.32;;;1.90;;
65092;SDS011;52025;50.288;2.794;2022-08-01T18:26:41;1.67;;;1.20;;
65092;SDS011;52025;50.288;2.794;2022-08-01T18:29:06;3.92;;;1.35;;
65092;SDS011;52025;50.288;2.794;2022-08-01T18:31:32;3.10;;;1.50;;
65092;SDS011;52025;50.288;2.794;2022-08-01T18:33:58;3.22;;;1.30;;
65092;SDS011;52025;50.288;2.794;2022-08-01T18:36:23;2.33;;;1.27;;
65092;SDS011;52025;50.288;2.794;2022-08-01T18:38:49;2.70;;;1.30;;
65092;SDS011;52025;50.288;2.794;2022-08-01T18:41:15;4.15;;;1.60;;
65092;SDS011;52025;50.288;2.794;2022-08-01T18:43:43;3.08;;;1.42;;
65092;SDS011;52025;50.288;2.794;2022-08-01T18:46:08;2.95;;;1.40;;
65092;SDS011;52025;50.288;2.794;2022-08-01T18:48:41;2.95;;;1.20;;
65092;SDS011;52025;50.288;2.794;2022-08-01T18:51:10;2.97;;;1.57;;
65092;SDS011;52025;50.288;2.794;2022-08-01T18:53:35;4.45;;;1.70;;
65092;SDS011;52025;50.288;2.794;2022-08-01T18:56:10;3.50;;;1.50;;
65092;SDS011;52025;50.288;2.794;2022-08-01T18:58:58;3.55;;;1.67;;
65092;SDS011;52025;50.288;2.794;2022-08-01T19:27:46;3.15;;;1.77;;
65092;SDS011;52025;50.288;2.794;2022-08-01T19:33:16;3.20;;;1.55;;
65092;SDS011;52025;50.288;2.794;2022-08-01T19:35:42;3.38;;;1.50;;
65092;SDS011;52025;50.288;2.794;2022-08-01T19:38:15;3.70;;;1.38;;
65092;SDS011;52025;50.288;2.794;2022-08-01T19:40:50;3.15;;;1.58;;
65092;SDS011;52025;50.288;2.794;2022-08-01T19:43:16;4.38;;;1.45;;
65092;SDS011;52025;50.288;2.794;2022-08-01T19:45:46;3.75;;;1.35;;
65092;SDS011;52025;50.288;2.794;2022-08-01T19:48:16;2.72;;;1.40;;
65092;SDS011;52025;50.288;2.794;2022-08-01T19:50:48;2.60;;;1.30;;
65092;SDS011;52025;50.288;2.794;2022-08-01T19:53:27;3.30;;;1.60;;
65092;SDS011;52025;50.288;2.794;2022-08-01T19:55:54;2.65;;;1.38;;
65092;SDS011;52025;50.288;2.794;2022-08-01T19:58:21;2.80;;;1.42;;
65092;SDS011;52025;50.288;2.794;2022-08-01T20:00:49;3.00;;;1.48;;
65092;SDS011;52025;50.288;2.794;2022-08-01T20:03:15;3.47;;;1.55;;
65092;SDS011;52025;50.288;2.794;2022-08-01T20:05:41;4.10;;;1.52;;
65092;SDS011;52025;50.288;2.794;2022-08-01T20:08:07;5.97;;;1.83;;
65092;SDS011;52025;50.288;2.794;2022-08-01T20:10:33;3.13;;;1.60;;
65092;SDS011;52025;50.288;2.794;2022-08-01T20:13:01;3.55;;;1.83;;
65092;SDS011;52025;50.288;2.794;2022-08-01T20:15:28;2.70;;;1.52;;
65092;SDS011;52025;50.288;2.794;2022-08-01T20:17:55;4.22;;;1.67;;
65092;SDS011;52025;50.288;2.794;2022-08-01T20:20:24;3.78;;;1.85;;
65092;SDS011;52025;50.288;2.794;2022-08-01T20:22:50;3.70;;;1.33;;
65092;SDS011;52025;50.288;2.794;2022-08-01T20:25:17;4.15;;;1.63;;
65092;SDS011;52025;50.288;2.794;2022-08-01T20:27:44;3.38;;;1.60;;
65092;SDS011;52025;50.288;2.794;2022-08-01T20:33:17;2.35;;;1.23;;